sensor_id;sensor_type;location;lat;lon;timestamp;pressure;altitude;pressure_sealevel;temperature;humidity
83563;BME280;73535;52.500;13.482;2024-02-14T00:01:49;101519.50;;;3.62;79.96
83563;BME280;73535;52.500;13.482;2024-02-14T00:04:15;101513.53;;;3.57;80.05
83563;BME280;73535;52.500;13.482;2024-02-14T00:06:40;101522.25;;;3.56;80.09
83563;BME280;73535;52.500;13.482;2024-02-14T00:09:06;101521.41;;;3.56;79.74
83563;BME280;73535;52.500;13.482;2024-02-14T00:11:31;101513.53;;;3.57;80.11
83563;BME280;73535;52.500;13.482;2024-02-14T00:13:57;101511.78;;;3.59;80.01
83563;BME280;73535;52.500;13.482;2024-02-14T00:16:24;101509.19;;;3.58;79.71
83563;BME280;73535;52.500;13.482;2024-02-14T00:18:49;101512.72;;;3.57;79.71
83563;BME280;73535;52.500;13.482;2024-02-14T00:21:14;101518.94;;;3.51;79.89
83563;BME280;73535;52.500;13.482;2024-02-14T00:23:39;101521.63;;;3.47;79.73
83563;BME280;73535;52.500;13.482;2024-02-14T00:26:04;101516.38;;;3.50;79.79
83563;BME280;73535;52.500;13.482;2024-02-14T00:28:30;101524.22;;;3.48;80.04
83563;BME280;73535;52.500;13.482;2024-02-14T00:30:55;101519.91;;;3.46;79.89
83563;BME280;73535;52.500;13.482;2024-02-14T00:33:20;101520.88;;;3.43;79.58
83563;BME280;73535;52.500;13.482;2024-02-14T00:35:47;101518.19;;;3.46;79.77
83563;BME280;73535;52.500;13.482;2024-02-14T00:38:12;101523.44;;;3.45;79.81
83563;BME280;73535;52.500;13.482;2024-02-14T00:40:37;101521.78;;;3.42;80.10
83563;BME280;73535;52.500;13.482;2024-02-14T00:43:02;101519.19;;;3.42;79.68
83563;BME280;73535;52.500;13.482;2024-02-14T00:45:27;101521.78;;;3.42;80.03
83563;BME280;73535;52.500;13.482;2024-02-14T00:47:53;101515.66;;;3.43;79.99
83563;BME280;73535;52.500;13.482;2024-02-14T00:50:18;101522.56;;;3.44;80.00
83563;BME280;73535;52.500;13.482;2024-02-14T00:52:43;101520.84;;;3.45;80.23
83563;BME280;73535;52.500;13.482;2024-02-14T00:55:09;101518.78;;;3.56;80.33
83563;BME280;73535;52.500;13.482;2024-02-14T00:57:34;101518.94;;;3.51;79.80
83563;BME280;73535;52.500;13.482;2024-02-14T00:59:59;101522.41;;;3.50;80.02
83563;BME280;73535;52.500;13.482;2024-02-14T01:02:24;101522.34;;;3.53;80.04
83563;BME280;73535;52.500;13.482;2024-02-14T01:04:51;101518.81;;;3.54;79.63
83563;BME280;73535;52.500;13.482;2024-02-14T01:07:16;101519.75;;;3.52;79.95
83563;BME280;73535;52.500;13.482;2024-02-14T01:09:41;101520.69;;;3.51;79.76
83563;BME280;73535;52.500;13.482;2024-02-14T01:12:07;101520.34;;;3.63;79.76
83563;BME280;73535;52.500;13.482;2024-02-14T01:14:32;101524.78;;;3.59;79.72
83563;BME280;73535;52.500;13.482;2024-02-14T01:16:57;101520.38;;;3.61;79.92
83563;BME280;73535;52.500;13.482;2024-02-14T01:19:22;101517.84;;;3.58;79.57
83563;BME280;73535;52.500;13.482;2024-02-14T01:21:49;101511.03;;;3.54;80.14
83563;BME280;73535;52.500;13.482;2024-02-14T01:24:15;101513.69;;;3.53;79.75
83563;BME280;73535;52.500;13.482;2024-02-14T01:26:41;101507.63;;;3.52;79.86
83563;BME280;73535;52.500;13.482;2024-02-14T01:29:06;101502.44;;;3.52;79.70
83563;BME280;73535;52.500;13.482;2024-02-14T01:31:33;101506.81;;;3.50;79.57
83563;BME280;73535;52.500;13.482;2024-02-14T01:33:59;101510.38;;;3.46;79.75
83563;BME280;73535;52.500;13.482;2024-02-14T01:36:26;101506.03;;;3.47;80.01
83563;BME280;73535;52.500;13.482;2024-02-14T01:38:52;101497.44;;;3.45;80.21
83563;BME280;73535;52.500;13.482;2024-02-14T01:41:17;101501.00;;;3.40;80.23
83563;BME280;73535;52.500;13.482;2024-02-14T01:43:42;101495.91;;;3.37;80.67
83563;BME280;73535;52.500;13.482;2024-02-14T01:46:10;101494.28;;;3.33;80.67
83563;BME280;73535;52.500;13.482;2024-02-14T01:48:35;101494.13;;;3.39;80.39
83563;BME280;73535;52.500;13.482;2024-02-14T01:51:02;101487.91;;;3.45;80.29
83563;BME280;73535;52.500;13.482;2024-02-14T01:53:28;101489.69;;;3.43;80.24
83563;BME280;73535;52.500;13.482;2024-02-14T01:55:56;101490.53;;;3.43;80.27
83563;BME280;73535;52.500;13.482;2024-02-14T01:58:22;101493.91;;;3.47;80.16
83563;BME280;73535;52.500;13.482;2024-02-14T02:00:47;101486.06;;;3.49;80.32
83563;BME280;73535;52.500;13.482;2024-02-14T02:03:13;101485.94;;;3.53;80.14
83563;BME280;73535;52.500;13.482;2024-02-14T02:05:39;101478.09;;;3.55;79.97
83563;BME280;73535;52.500;13.482;2024-02-14T02:08:07;101484.06;;;3.58;79.83
83563;BME280;73535;52.500;13.482;2024-02-14T02:10:33;101474.66;;;3.54;79.90
83563;BME280;73535;52.500;13.482;2024-02-14T02:12:58;101476.34;;;3.57;80.13
83563;BME280;73535;52.500;13.482;2024-02-14T02:15:27;101467.63;;;3.58;79.79
83563;BME280;73535;52.500;13.482;2024-02-14T02:17:53;101469.44;;;3.54;80.13
83563;BME280;73535;52.500;13.482;2024-02-14T02:20:19;101468.66;;;3.52;80.17
83563;BME280;73535;52.500;13.482;2024-02-14T02:22:46;101465.25;;;3.50;80.10
83563;BME280;73535;52.500;13.482;2024-02-14T02:25:12;101466.84;;;3.54;80.44
83563;BME280;73535;52.500;13.482;2024-02-14T02:27:37;101472.25;;;3.48;79.99
83563;BME280;73535;52.500;13.482;2024-02-14T02:30:04;101457.47;;;3.49;80.47
83563;BME280;73535;52.500;13.482;2024-02-14T02:32:30;101465.25;;;3.50;80.49
83563;BME280;73535;52.500;13.482;2024-02-14T02:34:55;101471.31;;;3.51;80.36
83563;BME280;73535;52.500;13.482;2024-02-14T02:37:21;101466.75;;;3.57;80.28
83563;BME280;73535;52.500;13.482;2024-02-14T02:39:46;101462.50;;;3.55;79.83
83563;BME280;73535;52.500;13.482;2024-02-14T02:42:12;101468.56;;;3.55;80.00
83563;BME280;73535;52.500;13.482;2024-02-14T02:44:39;101464.25;;;3.54;80.22
83563;BME280;73535;52.500;13.482;2024-02-14T02:47:04;101468.66;;;3.52;80.42
83563;BME280;73535;52.500;13.482;2024-02-14T02:49:30;101457.41;;;3.52;80.41
83563;BME280;73535;52.500;13.482;2024-02-14T02:51:55;101462.66;;;3.50;80.30
83563;BME280;73535;52.500;13.482;2024-02-14T02:54:20;101452.25;;;3.50;80.09
83563;BME280;73535;52.500;13.482;2024-02-14T02:56:47;101451.25;;;3.54;80.10
83563;BME280;73535;52.500;13.482;2024-02-14T02:59:12;101451.94;;;3.61;80.20
83563;BME280;73535;52.500;13.482;2024-02-14T03:01:38;101455.56;;;3.55;79.84
83563;BME280;73535;52.500;13.482;2024-02-14T03:04:05;101452.03;;;3.58;79.83
83563;BME280;73535;52.500;13.482;2024-02-14T03:06:30;101445.22;;;3.54;79.89
83563;BME280;73535;52.500;13.482;2024-02-14T03:08:56;101444.41;;;3.52;80.09
83563;BME280;73535;52.500;13.482;2024-02-14T03:11:22;101446.16;;;3.51;80.08
83563;BME280;73535;52.500;13.482;2024-02-14T03:13:47;101444.28;;;3.56;80.28
83563;BME280;73535;52.500;13.482;2024-02-14T03:16:14;101445.06;;;3.60;80.19
83563;BME280;73535;52.500;13.482;2024-02-14T03:18:39;101442.56;;;3.57;80.14
83563;BME280;73535;52.500;13.482;2024-02-14T03:21:05;101437.28;;;3.58;80.20
83563;BME280;73535;52.500;13.482;2024-02-14T03:23:31;101435.56;;;3.57;80.51
83563;BME280;73535;52.500;13.482;2024-02-14T03:25:56;101426.97;;;3.57;80.43
83563;BME280;73535;52.500;13.482;2024-02-14T03:28:22;101435.63;;;3.56;80.16
83563;BME280;73535;52.500;13.482;2024-02-14T03:30:47;101433.97;;;3.53;80.73
83563;BME280;73535;52.500;13.482;2024-02-14T03:33:12;101433.91;;;3.56;80.17
83563;BME280;73535;52.500;13.482;2024-02-14T03:35:38;101431.38;;;3.53;80.43
83563;BME280;73535;52.500;13.482;2024-02-14T03:38:03;101431.38;;;3.53;80.11
83563;BME280;73535;52.500;13.482;2024-02-14T03:40:29;101424.47;;;3.52;80.30
83563;BME280;73535;52.500;13.482;2024-02-14T03:42:56;101422.72;;;3.53;80.30
83563;BME280;73535;52.500;13.482;2024-02-14T03:45:21;101417.59;;;3.51;80.32
83563;BME280;73535;52.500;13.482;2024-02-14T03:47:46;101413.22;;;3.52;80.57
83563;BME280;73535;52.500;13.482;2024-02-14T03:50:11;101417.34;;;3.59;80.17
83563;BME280;73535;52.500;13.482;2024-02-14T03:52:36;101418.31;;;3.56;80.09
83563;BME280;73535;52.500;13.482;2024-02-14T03:55:02;101413.09;;;3.56;80.06
83563;BME280;73535;52.500;13.482;2024-02-14T03:57:28;101412.16;;;3.59;79.87
83563;BME280;73535;52.500;13.482;2024-02-14T03:59:59;101408.75;;;3.57;80.29
83563;BME280;73535;52.500;13.482;2024-02-14T04:02:26;101408.69;;;3.58;79.84
83563;BME280;73535;52.500;13.482;2024-02-14T04:04:53;101395.63;;;3.61;79.73
83563;BME280;73535;52.500;13.482;2024-02-14T04:07:18;101392.22;;;3.59;79.65
83563;BME280;73535;52.500;13.482;2024-02-14T04:09:43;101384.47;;;3.58;79.83
83563;BME280;73535;52.500;13.482;2024-02-14T04:12:08;101405.34;;;3.55;79.79
83563;BME280;73535;52.500;13.482;2024-02-14T04:14:35;101402.75;;;3.55;80.02
83563;BME280;73535;52.500;13.482;2024-02-14T04:17:01;101411.56;;;3.49;80.34
83563;BME280;73535;52.500;13.482;2024-02-14T04:19:26;101418.66;;;3.44;80.43
83563;BME280;73535;52.500;13.482;2024-02-14T04:21:51;101419.44;;;3.46;80.70
83563;BME280;73535;52.500;13.482;2024-02-14T04:24:16;101430.59;;;3.50;80.26
83563;BME280;73535;52.500;13.482;2024-02-14T04:26:42;101433.81;;;3.59;80.59
83563;BME280;73535;52.500;13.482;2024-02-14T04:29:10;101417.97;;;3.67;80.26
83563;BME280;73535;52.500;13.482;2024-02-14T04:31:35;101423.84;;;3.73;80.16
83563;BME280;73535;52.500;13.482;2024-02-14T04:34:01;101412.59;;;3.73;80.51
83563;BME280;73535;52.500;13.482;2024-02-14T04:36:26;101413.38;;;3.76;80.09
83563;BME280;73535;52.500;13.482;2024-02-14T04:38:52;101406.28;;;3.81;80.33
83563;BME280;73535;52.500;13.482;2024-02-14T04:41:18;101407.06;;;3.83;79.86
83563;BME280;73535;52.500;13.482;2024-02-14T04:43:43;101403.66;;;3.83;79.89
83563;BME280;73535;52.500;13.482;2024-02-14T04:46:08;101404.38;;;3.86;80.00
83563;BME280;73535;52.500;13.482;2024-02-14T04:48:37;101405.22;;;3.88;79.91
83563;BME280;73535;52.500;13.482;2024-02-14T04:51:03;101405.84;;;3.95;79.72
83563;BME280;73535;52.500;13.482;2024-02-14T04:53:30;101397.31;;;3.91;79.86
83563;BME280;73535;52.500;13.482;2024-02-14T04:55:55;101396.31;;;3.95;79.83
83563;BME280;73535;52.500;13.482;2024-02-14T04:58:20;101393.59;;;4.00;79.89
83563;BME280;73535;52.500;13.482;2024-02-14T05:00:46;101394.94;;;4.12;79.46
83563;BME280;73535;52.500;13.482;2024-02-14T05:03:11;101388.19;;;4.06;79.48
83563;BME280;73535;52.500;13.482;2024-02-14T05:05:36;101379.56;;;4.04;79.72
83563;BME280;73535;52.500;13.482;2024-02-14T05:08:03;101378.72;;;4.04;79.59
83563;BME280;73535;52.500;13.482;2024-02-14T05:10:28;101382.22;;;4.03;79.81
83563;BME280;73535;52.500;13.482;2024-02-14T05:12:54;101376.06;;;4.05;79.71
83563;BME280;73535;52.500;13.482;2024-02-14T05:15:19;101372.50;;;4.09;79.92
83563;BME280;73535;52.500;13.482;2024-02-14T05:17:45;101380.16;;;4.12;79.61
83563;BME280;73535;52.500;13.482;2024-02-14T05:20:10;101379.25;;;4.15;79.66
83563;BME280;73535;52.500;13.482;2024-02-14T05:22:36;101375.72;;;4.16;79.48
83563;BME280;73535;52.500;13.482;2024-02-14T05:25:05;101364.44;;;4.17;79.75
83563;BME280;73535;52.500;13.482;2024-02-14T05:27:33;101363.63;;;4.15;79.91
83563;BME280;73535;52.500;13.482;2024-02-14T05:29:58;101362.63;;;4.19;79.92
83563;BME280;73535;52.500;13.482;2024-02-14T05:32:23;101359.13;;;4.20;79.94
83563;BME280;73535;52.500;13.482;2024-02-14T05:34:50;101355.50;;;4.24;79.78
83563;BME280;73535;52.500;13.482;2024-02-14T05:37:15;101354.59;;;4.26;79.49
83563;BME280;73535;52.500;13.482;2024-02-14T05:39:40;101351.88;;;4.29;79.45
83563;BME280;73535;52.500;13.482;2024-02-14T05:42:06;101353.56;;;4.30;79.40
83563;BME280;73535;52.500;13.482;2024-02-14T05:44:31;101338.63;;;4.37;79.81
83563;BME280;73535;52.500;13.482;2024-02-14T05:46:57;101343.03;;;4.35;79.63
83563;BME280;73535;52.500;13.482;2024-02-14T05:49:22;101345.38;;;4.42;78.96
83563;BME280;73535;52.500;13.482;2024-02-14T05:51:47;101333.97;;;4.46;79.14
83563;BME280;73535;52.500;13.482;2024-02-14T05:54:12;101329.66;;;4.45;79.20
83563;BME280;73535;52.500;13.482;2024-02-14T05:56:38;101332.09;;;4.50;79.23
83563;BME280;73535;52.500;13.482;2024-02-14T05:59:03;101326.00;;;4.51;78.79
83563;BME280;73535;52.500;13.482;2024-02-14T06:01:28;101325.03;;;4.53;79.03
83563;BME280;73535;52.500;13.482;2024-02-14T06:03:54;101332.69;;;4.58;78.72
83563;BME280;73535;52.500;13.482;2024-02-14T06:06:19;101336.25;;;4.55;78.83
83563;BME280;73535;52.500;13.482;2024-02-14T06:08:44;101344.66;;;4.64;78.42
83563;BME280;73535;52.500;13.482;2024-02-14T06:11:09;101339.47;;;4.62;78.41
83563;BME280;73535;52.500;13.482;2024-02-14T06:13:35;101336.94;;;4.61;78.49
83563;BME280;73535;52.500;13.482;2024-02-14T06:16:03;101340.41;;;4.61;78.71
83563;BME280;73535;52.500;13.482;2024-02-14T06:18:28;101332.53;;;4.63;78.31
83563;BME280;73535;52.500;13.482;2024-02-14T06:20:54;101334.28;;;4.62;78.98
83563;BME280;73535;52.500;13.482;2024-02-14T06:23:19;101332.41;;;4.66;78.79
83563;BME280;73535;52.500;13.482;2024-02-14T06:25:44;101322.78;;;4.68;78.46
83563;BME280;73535;52.500;13.482;2024-02-14T06:28:09;101326.94;;;4.73;78.08
83563;BME280;73535;52.500;13.482;2024-02-14T06:30:35;101336.34;;;4.77;78.27
83563;BME280;73535;52.500;13.482;2024-02-14T06:33:00;101331.16;;;4.77;78.08
83563;BME280;73535;52.500;13.482;2024-02-14T06:35:27;101342.53;;;4.75;77.99
83563;BME280;73535;52.500;13.482;2024-02-14T06:37:52;101348.69;;;4.72;78.07
83563;BME280;73535;52.500;13.482;2024-02-14T06:40:17;101346.00;;;4.74;78.26
83563;BME280;73535;52.500;13.482;2024-02-14T06:42:43;101338.28;;;4.72;78.16
83563;BME280;73535;52.500;13.482;2024-02-14T06:45:08;101339.06;;;4.74;78.38
83563;BME280;73535;52.500;13.482;2024-02-14T06:47:33;101330.47;;;4.72;78.30
83563;BME280;73535;52.500;13.482;2024-02-14T06:49:58;101336.34;;;4.77;78.25
83563;BME280;73535;52.500;13.482;2024-02-14T06:52:24;101326.00;;;4.76;78.40
83563;BME280;73535;52.500;13.482;2024-02-14T06:54:49;101328.59;;;4.76;78.29
83563;BME280;73535;52.500;13.482;2024-02-14T06:57:14;101318.91;;;4.79;78.25
83563;BME280;73535;52.500;13.482;2024-02-14T06:59:40;101312.13;;;4.75;78.92
83563;BME280;73535;52.500;13.482;2024-02-14T07:02:05;101315.53;;;4.77;78.45
83563;BME280;73535;52.500;13.482;2024-02-14T07:04:31;101305.00;;;4.80;78.50
83563;BME280;73535;52.500;13.482;2024-02-14T07:06:56;101308.38;;;4.82;78.74
83563;BME280;73535;52.500;13.482;2024-02-14T07:09:22;101305.56;;;4.88;78.34
83563;BME280;73535;52.500;13.482;2024-02-14T07:11:47;101308.06;;;4.91;77.84
83563;BME280;73535;52.500;13.482;2024-02-14T07:14:12;101307.72;;;5.00;77.83
83563;BME280;73535;52.500;13.482;2024-02-14T07:16:38;101301.75;;;4.98;77.64
83563;BME280;73535;52.500;13.482;2024-02-14T07:19:03;101309.44;;;5.01;77.72
83563;BME280;73535;52.500;13.482;2024-02-14T07:21:28;101310.31;;;5.02;77.88
83563;BME280;73535;52.500;13.482;2024-02-14T07:23:54;101296.00;;;5.12;77.76
83563;BME280;73535;52.500;13.482;2024-02-14T07:26:19;101296.75;;;5.16;77.66
83563;BME280;73535;52.500;13.482;2024-02-14T07:28:44;101293.00;;;5.23;77.67
83563;BME280;73535;52.500;13.482;2024-02-14T07:31:10;101302.28;;;5.30;77.43
83563;BME280;73535;52.500;13.482;2024-02-14T07:33:35;101305.00;;;5.27;77.17
83563;BME280;73535;52.500;13.482;2024-02-14T07:36:00;101303.66;;;5.40;77.25
83563;BME280;73535;52.500;13.482;2024-02-14T07:38:25;101307.94;;;5.41;76.95
83563;BME280;73535;52.500;13.482;2024-02-14T07:40:52;101309.19;;;5.54;76.72
83563;BME280;73535;52.500;13.482;2024-02-14T07:43:17;101311.91;;;5.51;76.23
83563;BME280;73535;52.500;13.482;2024-02-14T07:45:42;101322.34;;;5.51;75.72
83563;BME280;73535;52.500;13.482;2024-02-14T07:48:07;101325.63;;;5.56;75.44
83563;BME280;73535;52.500;13.482;2024-02-14T07:50:33;101325.50;;;5.59;75.21
83563;BME280;73535;52.500;13.482;2024-02-14T07:52:58;101335.84;;;5.60;75.16
83563;BME280;73535;52.500;13.482;2024-02-14T07:55:24;101322.69;;;5.63;75.10
83563;BME280;73535;52.500;13.482;2024-02-14T07:57:49;101324.34;;;5.66;74.82
83563;BME280;73535;52.500;13.482;2024-02-14T08:00:14;101326.81;;;5.69;74.66
83563;BME280;73535;52.500;13.482;2024-02-14T08:02:47;101328.50;;;5.72;74.61
83563;BME280;73535;52.500;13.482;2024-02-14T08:05:13;101327.41;;;5.77;74.35
83563;BME280;73535;52.500;13.482;2024-02-14T08:07:39;101315.13;;;5.79;74.25
83563;BME280;73535;52.500;13.482;2024-02-14T08:10:04;101320.34;;;5.79;74.42
83563;BME280;73535;52.500;13.482;2024-02-14T08:12:30;101320.06;;;5.87;74.78
83563;BME280;73535;52.500;13.482;2024-02-14T08:14:55;101313.19;;;5.84;74.66
83563;BME280;73535;52.500;13.482;2024-02-14T08:17:20;101313.09;;;5.87;74.59
83563;BME280;73535;52.500;13.482;2024-02-14T08:19:46;101308.50;;;5.94;74.76
83563;BME280;73535;52.500;13.482;2024-02-14T08:22:11;101311.88;;;5.96;75.01
83563;BME280;73535;52.500;13.482;2024-02-14T08:24:37;101307.16;;;6.05;74.96
83563;BME280;73535;52.500;13.482;2024-02-14T08:27:02;101298.56;;;6.03;75.39
83563;BME280;73535;52.500;13.482;2024-02-14T08:29:31;101299.25;;;6.07;75.65
83563;BME280;73535;52.500;13.482;2024-02-14T08:31:56;101295.75;;;6.08;75.35
83563;BME280;73535;52.500;13.482;2024-02-14T08:34:22;101293.00;;;6.11;75.75
83563;BME280;73535;52.500;13.482;2024-02-14T08:36:47;101288.25;;;6.20;76.37
83563;BME280;73535;52.500;13.482;2024-02-14T08:39:12;101290.50;;;6.30;76.70
83563;BME280;73535;52.500;13.482;2024-02-14T08:41:38;101287.16;;;6.26;76.44
83563;BME280;73535;52.500;13.482;2024-02-14T08:44:04;101294.34;;;6.21;76.24
83563;BME280;73535;52.500;13.482;2024-02-14T08:46:30;101288.91;;;6.25;76.43
83563;BME280;73535;52.500;13.482;2024-02-14T08:48:55;101294.13;;;6.25;76.50
83563;BME280;73535;52.500;13.482;2024-02-14T08:51:20;101290.50;;;6.30;76.99
83563;BME280;73535;52.500;13.482;2024-02-14T08:53:46;101287.88;;;6.30;77.25
83563;BME280;73535;52.500;13.482;2024-02-14T08:56:11;101290.50;;;6.30;77.37
83563;BME280;73535;52.500;13.482;2024-02-14T08:58:36;101291.19;;;6.33;77.30
83563;BME280;73535;52.500;13.482;2024-02-14T09:01:01;101291.13;;;6.35;77.56
83563;BME280;73535;52.500;13.482;2024-02-14T09:03:27;101291.91;;;6.37;77.42
83563;BME280;73535;52.500;13.482;2024-02-14T09:05:52;101289.38;;;6.35;78.02
83563;BME280;73535;52.500;13.482;2024-02-14T09:08:18;101289.94;;;6.42;77.80
83563;BME280;73535;52.500;13.482;2024-02-14T09:10:43;101290.88;;;6.41;78.01
83563;BME280;73535;52.500;13.482;2024-02-14T09:13:11;101290.09;;;6.39;78.01
83563;BME280;73535;52.500;13.482;2024-02-14T09:15:36;101288.03;;;6.47;78.43
83563;BME280;73535;52.500;13.482;2024-02-14T09:18:01;101285.06;;;6.54;78.78
83563;BME280;73535;52.500;13.482;2024-02-14T09:20:28;101285.91;;;6.55;78.62
83563;BME280;73535;52.500;13.482;2024-02-14T09:22:53;101290.41;;;6.51;78.75
83563;BME280;73535;52.500;13.482;2024-02-14T09:25:19;101286.19;;;6.49;78.82
83563;BME280;73535;52.500;13.482;2024-02-14T09:27:44;101291.13;;;6.55;78.91
83563;BME280;73535;52.500;13.482;2024-02-14T09:30:12;101287.53;;;6.57;79.08
83563;BME280;73535;52.500;13.482;2024-02-14T09:32:37;101287.34;;;6.62;78.88
83563;BME280;73535;52.500;13.482;2024-02-14T09:35:03;101294.00;;;6.69;78.97
83563;BME280;73535;52.500;13.482;2024-02-14T09:37:31;101294.84;;;6.69;79.46
83563;BME280;73535;52.500;13.482;2024-02-14T09:39:57;101288.78;;;6.69;79.22
83563;BME280;73535;52.500;13.482;2024-02-14T09:42:28;101288.56;;;6.73;79.44
83563;BME280;73535;52.500;13.482;2024-02-14T09:44:58;101283.28;;;6.75;79.50
83563;BME280;73535;52.500;13.482;2024-02-14T09:47:24;101291.91;;;6.77;79.71
83563;BME280;73535;52.500;13.482;2024-02-14T09:49:51;101283.88;;;6.81;79.67
83563;BME280;73535;52.500;13.482;2024-02-14T09:52:17;101290.78;;;6.82;80.00
83563;BME280;73535;52.500;13.482;2024-02-14T09:54:43;101287.97;;;6.87;80.27
83563;BME280;73535;52.500;13.482;2024-02-14T09:57:09;101292.09;;;6.93;80.45
83563;BME280;73535;52.500;13.482;2024-02-14T09:59:35;101284.97;;;6.96;80.39
83563;BME280;73535;52.500;13.482;2024-02-14T10:02:00;101279.66;;;6.98;80.81
83563;BME280;73535;52.500;13.482;2024-02-14T10:04:25;101287.13;;;7.05;80.67
83563;BME280;73535;52.500;13.482;2024-02-14T10:06:51;101286.44;;;7.02;81.02
83563;BME280;73535;52.500;13.482;2024-02-14T10:09:21;101289.59;;;7.08;81.12
83563;BME280;73535;52.500;13.482;2024-02-14T10:11:46;101282.84;;;7.04;81.50
83563;BME280;73535;52.500;13.482;2024-02-14T10:14:11;101285.09;;;6.93;81.96
83563;BME280;73535;52.500;13.482;2024-02-14T10:16:37;101279.88;;;6.93;82.33
83563;BME280;73535;52.500;13.482;2024-02-14T10:19:03;101287.72;;;6.93;82.62
83563;BME280;73535;52.500;13.482;2024-02-14T10:21:29;101280.78;;;6.92;82.89
83563;BME280;73535;52.500;13.482;2024-02-14T10:23:54;101282.34;;;6.96;83.25
83563;BME280;73535;52.500;13.482;2024-02-14T10:26:22;101280.50;;;6.98;83.47
83563;BME280;73535;52.500;13.482;2024-02-14T10:28:48;101279.78;;;6.95;83.70
83563;BME280;73535;52.500;13.482;2024-02-14T10:31:15;101280.38;;;7.01;83.68
83563;BME280;73535;52.500;13.482;2024-02-14T10:33:41;101266.41;;;7.02;83.78
83563;BME280;73535;52.500;13.482;2024-02-14T10:36:12;101265.41;;;7.05;84.13
83563;BME280;73535;52.500;13.482;2024-02-14T10:38:37;101269.22;;;7.16;83.88
83563;BME280;73535;52.500;13.482;2024-02-14T10:41:04;101261.16;;;7.21;83.52
83563;BME280;73535;52.500;13.482;2024-02-14T10:43:30;101267.09;;;7.24;83.66
83563;BME280;73535;52.500;13.482;2024-02-14T10:45:56;101269.34;;;7.32;83.80
83563;BME280;73535;52.500;13.482;2024-02-14T10:48:24;101262.34;;;7.32;83.93
83563;BME280;73535;52.500;13.482;2024-02-14T10:50:50;101269.28;;;7.33;83.91
83563;BME280;73535;52.500;13.482;2024-02-14T10:53:18;101256.06;;;7.36;83.84
83563;BME280;73535;52.500;13.482;2024-02-14T10:55:46;101262.22;;;7.35;83.98
83563;BME280;73535;52.500;13.482;2024-02-14T10:58:12;101258.56;;;7.39;83.85
83563;BME280;73535;52.500;13.482;2024-02-14T11:00:39;101261.03;;;7.43;83.62
83563;BME280;73535;52.500;13.482;2024-02-14T11:03:04;101253.84;;;7.46;83.76
83563;BME280;73535;52.500;13.482;2024-02-14T11:05:30;101257.19;;;7.50;83.96
83563;BME280;73535;52.500;13.482;2024-02-14T11:07:56;101260.41;;;7.55;83.92
83563;BME280;73535;52.500;13.482;2024-02-14T11:10:22;101252.38;;;7.59;83.92
83563;BME280;73535;52.500;13.482;2024-02-14T11:12:48;101249.50;;;7.64;83.68
83563;BME280;73535;52.500;13.482;2024-02-14T11:15:17;101249.06;;;7.73;83.73
83563;BME280;73535;52.500;13.482;2024-02-14T11:17:43;101250.03;;;7.72;83.45
83563;BME280;73535;52.500;13.482;2024-02-14T11:20:31;101250.50;;;7.80;83.47
83563;BME280;73535;52.500;13.482;2024-02-14T11:23:02;101248.50;;;7.85;83.41
83563;BME280;73535;52.500;13.482;2024-02-14T11:25:34;101241.03;;;7.94;83.39
83563;BME280;73535;52.500;13.482;2024-02-14T11:28:01;101251.56;;;7.93;82.95
83563;BME280;73535;52.500;13.482;2024-02-14T11:30:37;101249.59;;;7.98;83.03
83563;BME280;73535;52.500;13.482;2024-02-14T11:33:22;101237.13;;;8.03;83.09
83563;BME280;73535;52.500;13.482;2024-02-14T11:35:50;101238.78;;;8.04;82.98
83563;BME280;73535;52.500;13.482;2024-02-14T11:38:16;101242.19;;;8.06;83.38
83563;BME280;73535;52.500;13.482;2024-02-14T11:40:42;101238.63;;;8.07;83.33
83563;BME280;73535;52.500;13.482;2024-02-14T11:43:11;101237.66;;;8.10;83.32
83563;BME280;73535;52.500;13.482;2024-02-14T11:45:37;101241.25;;;8.07;83.63
83563;BME280;73535;52.500;13.482;2024-02-14T11:48:04;101246.28;;;8.12;83.55
83563;BME280;73535;52.500;13.482;2024-02-14T11:50:30;101234.19;;;8.09;83.38
83563;BME280;73535;52.500;13.482;2024-02-14T11:52:58;101239.44;;;8.09;83.63
83563;BME280;73535;52.500;13.482;2024-02-14T11:55:27;101245.44;;;8.11;83.58
83563;BME280;73535;52.500;13.482;2024-02-14T11:57:53;101234.03;;;8.12;83.60
83563;BME280;73535;52.500;13.482;2024-02-14T12:00:18;101244.56;;;8.11;84.14
83563;BME280;73535;52.500;13.482;2024-02-14T12:02:44;101228.66;;;8.15;83.65
83563;BME280;73535;52.500;13.482;2024-02-14T12:05:09;101239.13;;;8.15;83.79
83563;BME280;73535;52.500;13.482;2024-02-14T12:07:34;101236.25;;;8.20;83.95
83563;BME280;73535;52.500;13.482;2024-02-14T12:10:00;101239.78;;;8.19;84.07
83563;BME280;73535;52.500;13.482;2024-02-14T12:12:25;101243.09;;;8.22;83.66
83563;BME280;73535;52.500;13.482;2024-02-14T12:14:53;101234.19;;;8.26;84.07
83563;BME280;73535;52.500;13.482;2024-02-14T12:17:19;101238.44;;;8.29;84.06
83563;BME280;73535;52.500;13.482;2024-02-14T12:19:44;101232.38;;;8.28;84.38
83563;BME280;73535;52.500;13.482;2024-02-14T12:22:10;101240.97;;;8.30;84.78
83563;BME280;73535;52.500;13.482;2024-02-14T12:24:42;101234.91;;;8.30;84.51
83563;BME280;73535;52.500;13.482;2024-02-14T12:27:08;101236.69;;;8.29;84.69
83563;BME280;73535;52.500;13.482;2024-02-14T12:29:35;101231.28;;;8.32;84.62
83563;BME280;73535;52.500;13.482;2024-02-14T12:32:04;101229.59;;;8.31;85.01
83563;BME280;73535;52.500;13.482;2024-02-14T12:34:29;101233.06;;;8.32;84.98
83563;BME280;73535;52.500;13.482;2024-02-14T12:36:55;101231.91;;;8.37;85.27
83563;BME280;73535;52.500;13.482;2024-02-14T12:39:20;101223.78;;;8.42;85.06
83563;BME280;73535;52.500;13.482;2024-02-14T12:41:45;101240.66;;;8.36;85.36
83563;BME280;73535;52.500;13.482;2024-02-14T12:44:11;101233.50;;;8.40;85.33